sensor_id;sensor_type;location;lat;lon;timestamp;pressure;altitude;pressure_sealevel;temperature;humidity
65553;BME280;72126;51.560;14.368;2024-01-30T00:01:19;101771.22;;;8.20;63.64
65553;BME280;72126;51.560;14.368;2024-01-30T00:03:44;101774.66;;;8.20;63.65
65553;BME280;72126;51.560;14.368;2024-01-30T00:06:11;101769.44;;;8.20;63.69
65553;BME280;72126;51.560;14.368;2024-01-30T00:08:36;101764.22;;;8.20;63.66
65553;BME280;72126;51.560;14.368;2024-01-30T00:11:01;101757.34;;;8.19;63.70
65553;BME280;72126;51.560;14.368;2024-01-30T00:13:26;101758.19;;;8.20;63.33
65553;BME280;72126;51.560;14.368;2024-01-30T00:15:53;101753.88;;;8.19;63.38
65553;BME280;72126;51.560;14.368;2024-01-30T00:18:18;101753.78;;;8.20;63.28
65553;BME280;72126;51.560;14.368;2024-01-30T00:20:43;101754.72;;;8.19;63.22
65553;BME280;72126;51.560;14.368;2024-01-30T00:23:08;101752.13;;;8.19;64.16
65553;BME280;72126;51.560;14.368;2024-01-30T00:25:34;101753.88;;;8.19;63.86
65553;BME280;72126;51.560;14.368;2024-01-30T00:27:59;101752.94;;;8.20;63.74
65553;BME280;72126;51.560;14.368;2024-01-30T00:30:24;101756.41;;;8.20;63.34
65553;BME280;72126;51.560;14.368;2024-01-30T00:32:50;101746.91;;;8.19;64.07
65553;BME280;72126;51.560;14.368;2024-01-30T00:35:15;101745.22;;;8.18;63.62
65553;BME280;72126;51.560;14.368;2024-01-30T00:37:40;101752.94;;;8.20;63.24
65553;BME280;72126;51.560;14.368;2024-01-30T00:40:05;101750.44;;;8.18;63.25
65553;BME280;72126;51.560;14.368;2024-01-30T00:42:31;101763.47;;;8.18;63.41
65553;BME280;72126;51.560;14.368;2024-01-30T00:44:57;101749.59;;;8.18;63.95
65553;BME280;72126;51.560;14.368;2024-01-30T00:47:22;101745.22;;;8.18;63.84
65553;BME280;72126;51.560;14.368;2024-01-30T00:49:47;101751.25;;;8.19;63.52
65553;BME280;72126;51.560;14.368;2024-01-30T00:52:12;101751.38;;;8.17;63.57
65553;BME280;72126;51.560;14.368;2024-01-30T00:54:37;101747.81;;;8.18;64.29
65553;BME280;72126;51.560;14.368;2024-01-30T00:57:03;101744.38;;;8.18;63.16
65553;BME280;72126;51.560;14.368;2024-01-30T00:59:28;101737.38;;;8.18;64.02
65553;BME280;72126;51.560;14.368;2024-01-30T01:01:54;101740.94;;;8.17;63.91
65553;BME280;72126;51.560;14.368;2024-01-30T01:04:19;101741.78;;;8.18;63.43
65553;BME280;72126;51.560;14.368;2024-01-30T01:06:44;101746.16;;;8.17;63.11
65553;BME280;72126;51.560;14.368;2024-01-30T01:09:11;101742.72;;;8.17;63.70
65553;BME280;72126;51.560;14.368;2024-01-30T01:11:36;101738.31;;;8.17;62.95
65553;BME280;72126;51.560;14.368;2024-01-30T01:14:01;101740.94;;;8.17;63.41
65553;BME280;72126;51.560;14.368;2024-01-30T01:16:26;101745.31;;;8.17;63.28
65553;BME280;72126;51.560;14.368;2024-01-30T01:18:51;101747.94;;;8.17;63.69
65553;BME280;72126;51.560;14.368;2024-01-30T01:21:17;101750.53;;;8.17;63.80
65553;BME280;72126;51.560;14.368;2024-01-30T01:23:42;101747.94;;;8.17;63.75
65553;BME280;72126;51.560;14.368;2024-01-30T01:26:08;101743.66;;;8.16;63.25
65553;BME280;72126;51.560;14.368;2024-01-30T01:28:33;101738.44;;;8.16;63.71
65553;BME280;72126;51.560;14.368;2024-01-30T01:30:58;101745.31;;;8.17;63.84
65553;BME280;72126;51.560;14.368;2024-01-30T01:33:23;101738.44;;;8.16;63.41
65553;BME280;72126;51.560;14.368;2024-01-30T01:35:48;101738.44;;;8.16;63.62
65553;BME280;72126;51.560;14.368;2024-01-30T01:38:13;101737.59;;;8.15;63.87
65553;BME280;72126;51.560;14.368;2024-01-30T01:40:41;101727.19;;;8.15;63.81
65553;BME280;72126;51.560;14.368;2024-01-30T01:43:07;101733.22;;;8.16;63.37
65553;BME280;72126;51.560;14.368;2024-01-30T01:45:32;101731.56;;;8.15;63.22
65553;BME280;72126;51.560;14.368;2024-01-30T01:47:57;101732.41;;;8.15;63.53
65553;BME280;72126;51.560;14.368;2024-01-30T01:50:22;101728.97;;;8.15;63.28
65553;BME280;72126;51.560;14.368;2024-01-30T01:52:48;101722.91;;;8.14;63.68
65553;BME280;72126;51.560;14.368;2024-01-30T01:55:15;101728.97;;;8.15;63.66
65553;BME280;72126;51.560;14.368;2024-01-30T01:57:41;101726.34;;;8.15;63.20
65553;BME280;72126;51.560;14.368;2024-01-30T02:00:07;101723.81;;;8.13;63.41
65553;BME280;72126;51.560;14.368;2024-01-30T02:02:35;101726.44;;;8.13;63.75
65553;BME280;72126;51.560;14.368;2024-01-30T02:05:00;101722.06;;;8.14;63.21
65553;BME280;72126;51.560;14.368;2024-01-30T02:07:28;101723.81;;;8.13;63.85
65553;BME280;72126;51.560;14.368;2024-01-30T02:09:53;101723.81;;;8.13;63.75
65553;BME280;72126;51.560;14.368;2024-01-30T02:12:19;101723.81;;;8.13;63.76
65553;BME280;72126;51.560;14.368;2024-01-30T02:14:45;101713.38;;;8.13;63.82
65553;BME280;72126;51.560;14.368;2024-01-30T02:17:10;101718.59;;;8.13;63.60
65553;BME280;72126;51.560;14.368;2024-01-30T02:19:35;101719.47;;;8.14;63.27
65553;BME280;72126;51.560;14.368;2024-01-30T02:22:01;101712.56;;;8.13;64.12
65553;BME280;72126;51.560;14.368;2024-01-30T02:24:26;101704.72;;;8.13;63.44
65553;BME280;72126;51.560;14.368;2024-01-30T02:26:51;101708.16;;;8.13;63.59
65553;BME280;72126;51.560;14.368;2024-01-30T02:29:16;101705.56;;;8.13;63.81
65553;BME280;72126;51.560;14.368;2024-01-30T02:31:41;101707.34;;;8.13;64.17
65553;BME280;72126;51.560;14.368;2024-01-30T02:34:07;101703.91;;;8.12;63.52
65553;BME280;72126;51.560;14.368;2024-01-30T02:36:32;101710.78;;;8.13;63.71
65553;BME280;72126;51.560;14.368;2024-01-30T02:38:57;101709.94;;;8.13;63.80
65553;BME280;72126;51.560;14.368;2024-01-30T02:41:22;101711.72;;;8.12;63.42
65553;BME280;72126;51.560;14.368;2024-01-30T02:43:47;101706.50;;;8.12;63.46
65553;BME280;72126;51.560;14.368;2024-01-30T02:46:13;101700.47;;;8.12;63.69
65553;BME280;72126;51.560;14.368;2024-01-30T02:48:38;101701.28;;;8.12;63.46
65553;BME280;72126;51.560;14.368;2024-01-30T02:51:03;101707.44;;;8.11;63.71
65553;BME280;72126;51.560;14.368;2024-01-30T02:53:28;101708.28;;;8.12;63.44
65553;BME280;72126;51.560;14.368;2024-01-30T02:55:53;101708.41;;;8.10;63.86
65553;BME280;72126;51.560;14.368;2024-01-30T02:58:19;101704.00;;;8.11;63.51
65553;BME280;72126;51.560;14.368;2024-01-30T03:00:44;101701.41;;;8.11;63.85
65553;BME280;72126;51.560;14.368;2024-01-30T03:03:09;101701.41;;;8.11;63.96
65553;BME280;72126;51.560;14.368;2024-01-30T03:05:34;101703.19;;;8.10;63.77
65553;BME280;72126;51.560;14.368;2024-01-30T03:07:59;101697.97;;;8.10;64.04
65553;BME280;72126;51.560;14.368;2024-01-30T03:10:24;101695.34;;;8.10;63.43
65553;BME280;72126;51.560;14.368;2024-01-30T03:12:50;101696.31;;;8.09;63.94
65553;BME280;72126;51.560;14.368;2024-01-30T03:15:15;101704.13;;;8.09;63.49
65553;BME280;72126;51.560;14.368;2024-01-30T03:17:40;101704.97;;;8.10;64.01
65553;BME280;72126;51.560;14.368;2024-01-30T03:20:06;101699.84;;;8.08;63.06
65553;BME280;72126;51.560;14.368;2024-01-30T03:22:31;101707.56;;;8.10;63.94
65553;BME280;72126;51.560;14.368;2024-01-30T03:24:57;101711.00;;;8.10;63.53
65553;BME280;72126;51.560;14.368;2024-01-30T03:27:22;101708.41;;;8.10;64.32
65553;BME280;72126;51.560;14.368;2024-01-30T03:29:47;101702.47;;;8.08;63.45
65553;BME280;72126;51.560;14.368;2024-01-30T03:32:12;101702.47;;;8.08;63.88
65553;BME280;72126;51.560;14.368;2024-01-30T03:34:38;101699.00;;;8.08;63.68
65553;BME280;72126;51.560;14.368;2024-01-30T03:37:03;101694.63;;;8.08;64.13
65553;BME280;72126;51.560;14.368;2024-01-30T03:39:28;101704.22;;;8.08;63.52
65553;BME280;72126;51.560;14.368;2024-01-30T03:41:53;101699.84;;;8.08;63.54
65553;BME280;72126;51.560;14.368;2024-01-30T03:44:18;101696.50;;;8.06;64.19
65553;BME280;72126;51.560;14.368;2024-01-30T03:46:43;101694.72;;;8.07;63.99
65553;BME280;72126;51.560;14.368;2024-01-30T03:49:09;101692.94;;;8.07;63.80
65553;BME280;72126;51.560;14.368;2024-01-30T03:51:35;101690.34;;;8.07;63.82
65553;BME280;72126;51.560;14.368;2024-01-30T03:54:00;101687.72;;;8.07;64.02
65553;BME280;72126;51.560;14.368;2024-01-30T03:56:26;101692.13;;;8.07;63.20
65553;BME280;72126;51.560;14.368;2024-01-30T03:58:51;101693.06;;;8.06;63.24
65553;BME280;72126;51.560;14.368;2024-01-30T04:01:16;101688.66;;;8.06;63.40
65553;BME280;72126;51.560;14.368;2024-01-30T04:03:42;101694.72;;;8.07;63.44
65553;BME280;72126;51.560;14.368;2024-01-30T04:06:08;101694.72;;;8.07;63.48
65553;BME280;72126;51.560;14.368;2024-01-30T04:08:33;101693.88;;;8.06;63.57
65553;BME280;72126;51.560;14.368;2024-01-30T04:10:58;101689.50;;;8.07;63.86
65553;BME280;72126;51.560;14.368;2024-01-30T04:13:23;101686.19;;;8.05;63.60
65553;BME280;72126;51.560;14.368;2024-01-30T04:15:48;101693.88;;;8.06;63.90
65553;BME280;72126;51.560;14.368;2024-01-30T04:18:14;101693.06;;;8.06;63.21
65553;BME280;72126;51.560;14.368;2024-01-30T04:20:39;101693.06;;;8.06;63.79
65553;BME280;72126;51.560;14.368;2024-01-30T04:23:04;101690.56;;;8.04;63.39
65553;BME280;72126;51.560;14.368;2024-01-30T04:25:29;101687.84;;;8.06;64.06
65553;BME280;72126;51.560;14.368;2024-01-30T04:27:54;101686.19;;;8.05;64.33
65553;BME280;72126;51.560;14.368;2024-01-30T04:30:20;101687.94;;;8.04;63.82
65553;BME280;72126;51.560;14.368;2024-01-30T04:32:45;101685.34;;;8.04;63.33
65553;BME280;72126;51.560;14.368;2024-01-30T04:35:10;101693.16;;;8.04;63.17
65553;BME280;72126;51.560;14.368;2024-01-30T04:37:39;101696.72;;;8.03;63.76
65553;BME280;72126;51.560;14.368;2024-01-30T04:40:04;101698.38;;;8.04;63.14
65553;BME280;72126;51.560;14.368;2024-01-30T04:42:30;101697.44;;;8.05;63.46
65553;BME280;72126;51.560;14.368;2024-01-30T04:44:55;101694.94;;;8.04;64.29
65553;BME280;72126;51.560;14.368;2024-01-30T04:47:20;101694.13;;;8.03;63.79
65553;BME280;72126;51.560;14.368;2024-01-30T04:49:46;101691.50;;;8.03;63.31
65553;BME280;72126;51.560;14.368;2024-01-30T04:52:11;101684.59;;;8.02;63.72
65553;BME280;72126;51.560;14.368;2024-01-30T04:54:36;101687.19;;;8.02;63.60
65553;BME280;72126;51.560;14.368;2024-01-30T04:57:02;101686.28;;;8.03;64.14
65553;BME280;72126;51.560;14.368;2024-01-30T04:59:27;101689.81;;;8.02;63.85
65553;BME280;72126;51.560;14.368;2024-01-30T05:01:53;101688.06;;;8.03;63.61
65553;BME280;72126;51.560;14.368;2024-01-30T05:04:18;101694.19;;;8.02;63.50
65553;BME280;72126;51.560;14.368;2024-01-30T05:06:43;101694.19;;;8.02;63.81
65553;BME280;72126;51.560;14.368;2024-01-30T05:09:08;101685.53;;;8.01;63.82
65553;BME280;72126;51.560;14.368;2024-01-30T05:11:37;101682.94;;;8.01;63.15
65553;BME280;72126;51.560;14.368;2024-01-30T05:14:03;101681.16;;;8.02;63.90
65553;BME280;72126;51.560;14.368;2024-01-30T05:16:28;101688.16;;;8.01;63.18
65553;BME280;72126;51.560;14.368;2024-01-30T05:18:53;101680.31;;;8.01;63.98
65553;BME280;72126;51.560;14.368;2024-01-30T05:21:18;101680.31;;;8.01;63.21
65553;BME280;72126;51.560;14.368;2024-01-30T05:23:44;101674.38;;;7.99;63.91
65553;BME280;72126;51.560;14.368;2024-01-30T05:26:09;101676.88;;;8.01;63.41
65553;BME280;72126;51.560;14.368;2024-01-30T05:28:34;101674.28;;;8.01;63.47
65553;BME280;72126;51.560;14.368;2024-01-30T05:30:59;101675.09;;;8.01;63.33
65553;BME280;72126;51.560;14.368;2024-01-30T05:33:25;101679.50;;;8.01;63.91
65553;BME280;72126;51.560;14.368;2024-01-30T05:35:50;101676.88;;;8.01;63.21
65553;BME280;72126;51.560;14.368;2024-01-30T05:38:16;101659.88;;;7.95;63.59
65553;BME280;72126;51.560;14.368;2024-01-30T05:40:41;101680.44;;;8.00;63.92
65553;BME280;72126;51.560;14.368;2024-01-30T05:43:06;101673.56;;;7.99;63.58
65553;BME280;72126;51.560;14.368;2024-01-30T05:45:31;101677.00;;;7.99;63.97
65553;BME280;72126;51.560;14.368;2024-01-30T05:47:57;101674.38;;;7.99;64.14
65553;BME280;72126;51.560;14.368;2024-01-30T05:50:22;101685.66;;;8.00;63.44
65553;BME280;72126;51.560;14.368;2024-01-30T05:52:49;101688.25;;;8.00;63.34
65553;BME280;72126;51.560;14.368;2024-01-30T05:55:14;101690.88;;;8.00;63.42
65553;BME280;72126;51.560;14.368;2024-01-30T05:57:39;101684.81;;;7.99;64.06
65553;BME280;72126;51.560;14.368;2024-01-30T06:00:05;101681.38;;;7.99;63.84
65553;BME280;72126;51.560;14.368;2024-01-30T06:02:31;101680.56;;;7.98;63.11
65553;BME280;72126;51.560;14.368;2024-01-30T06:04:56;101683.16;;;7.98;63.57
65553;BME280;72126;51.560;14.368;2024-01-30T06:07:22;101678.88;;;7.97;63.71
65553;BME280;72126;51.560;14.368;2024-01-30T06:09:47;101684.94;;;7.98;63.93
65553;BME280;72126;51.560;14.368;2024-01-30T06:12:12;101676.28;;;7.97;63.63
65553;BME280;72126;51.560;14.368;2024-01-30T06:14:37;101670.19;;;7.96;63.47
65553;BME280;72126;51.560;14.368;2024-01-30T06:17:03;101676.28;;;7.97;63.36
65553;BME280;72126;51.560;14.368;2024-01-30T06:19:28;101673.66;;;7.97;64.04
65553;BME280;72126;51.560;14.368;2024-01-30T06:21:53;101671.06;;;7.97;63.17
65553;BME280;72126;51.560;14.368;2024-01-30T06:24:18;101666.75;;;7.96;63.41
65553;BME280;72126;51.560;14.368;2024-01-30T06:26:43;101672.81;;;7.96;63.68
65553;BME280;72126;51.560;14.368;2024-01-30T06:29:09;101667.59;;;7.96;63.54
65553;BME280;72126;51.560;14.368;2024-01-30T06:31:40;101665.94;;;7.95;63.92
65553;BME280;72126;51.560;14.368;2024-01-30T06:34:05;101670.19;;;7.96;64.28
65553;BME280;72126;51.560;14.368;2024-01-30T06:36:30;101665.09;;;7.95;63.75
65553;BME280;72126;51.560;14.368;2024-01-30T06:38:55;101668.53;;;7.95;63.75
65553;BME280;72126;51.560;14.368;2024-01-30T06:41:20;101666.75;;;7.96;63.85
65553;BME280;72126;51.560;14.368;2024-01-30T06:43:46;101671.97;;;7.96;64.12
65553;BME280;72126;51.560;14.368;2024-01-30T06:46:11;101664.16;;;7.96;64.33
65553;BME280;72126;51.560;14.368;2024-01-30T06:48:36;101668.53;;;7.95;64.22
65553;BME280;72126;51.560;14.368;2024-01-30T06:51:01;101671.97;;;7.96;63.59
65553;BME280;72126;51.560;14.368;2024-01-30T06:53:27;101665.94;;;7.95;63.91
65553;BME280;72126;51.560;14.368;2024-01-30T06:55:52;101673.75;;;7.95;63.66
65553;BME280;72126;51.560;14.368;2024-01-30T06:58:17;101673.75;;;7.95;64.03
65553;BME280;72126;51.560;14.368;2024-01-30T07:00:42;101677.19;;;7.96;64.37
65553;BME280;72126;51.560;14.368;2024-01-30T07:03:08;101684.19;;;7.95;64.02
65553;BME280;72126;51.560;14.368;2024-01-30T07:05:36;101681.56;;;7.95;63.59
65553;BME280;72126;51.560;14.368;2024-01-30T07:08:01;101678.13;;;7.95;63.60
65553;BME280;72126;51.560;14.368;2024-01-30T07:10:26;101686.78;;;7.95;63.39
65553;BME280;72126;51.560;14.368;2024-01-30T07:12:51;101685.00;;;7.96;63.61
65553;BME280;72126;51.560;14.368;2024-01-30T07:15:17;101688.56;;;7.95;64.02
65553;BME280;72126;51.560;14.368;2024-01-30T07:17:42;101681.69;;;7.94;63.63
65553;BME280;72126;51.560;14.368;2024-01-30T07:20:07;101689.50;;;7.94;63.84
65553;BME280;72126;51.560;14.368;2024-01-30T07:22:33;101685.97;;;7.95;63.97
65553;BME280;72126;51.560;14.368;2024-01-30T07:24:59;101682.53;;;7.94;63.32
65553;BME280;72126;51.560;14.368;2024-01-30T07:27:24;101689.50;;;7.94;63.69
65553;BME280;72126;51.560;14.368;2024-01-30T07:29:49;101677.31;;;7.94;63.60
65553;BME280;72126;51.560;14.368;2024-01-30T07:32:15;101681.69;;;7.94;63.67
65553;BME280;72126;51.560;14.368;2024-01-30T07:34:40;101683.34;;;7.95;63.62
65553;BME280;72126;51.560;14.368;2024-01-30T07:37:05;101687.75;;;7.94;63.57
65553;BME280;72126;51.560;14.368;2024-01-30T07:39:30;101681.69;;;7.94;63.64
65553;BME280;72126;51.560;14.368;2024-01-30T07:41:56;101683.47;;;7.93;63.55
65553;BME280;72126;51.560;14.368;2024-01-30T07:44:21;101677.31;;;7.94;63.86
65553;BME280;72126;51.560;14.368;2024-01-30T07:46:47;101679.09;;;7.94;63.59
65553;BME280;72126;51.560;14.368;2024-01-30T07:49:12;101679.09;;;7.94;63.76
65553;BME280;72126;51.560;14.368;2024-01-30T07:51:37;101678.25;;;7.93;63.59
65553;BME280;72126;51.560;14.368;2024-01-30T07:54:02;101685.97;;;7.95;63.88
65553;BME280;72126;51.560;14.368;2024-01-30T07:56:27;101685.13;;;7.94;63.21
65553;BME280;72126;51.560;14.368;2024-01-30T07:58:53;101679.09;;;7.94;63.77
65553;BME280;72126;51.560;14.368;2024-01-30T08:01:18;101678.25;;;7.93;64.14
65553;BME280;72126;51.560;14.368;2024-01-30T08:03:43;101675.66;;;7.93;63.87
65553;BME280;72126;51.560;14.368;2024-01-30T08:06:09;101680.84;;;7.93;63.64
65553;BME280;72126;51.560;14.368;2024-01-30T08:08:34;101682.53;;;7.94;63.36
65553;BME280;72126;51.560;14.368;2024-01-30T08:10:59;101679.09;;;7.94;64.17
65553;BME280;72126;51.560;14.368;2024-01-30T08:13:25;101686.91;;;7.94;63.64
65553;BME280;72126;51.560;14.368;2024-01-30T08:15:50;101679.91;;;7.94;63.64
65553;BME280;72126;51.560;14.368;2024-01-30T08:18:15;101671.25;;;7.94;63.80
65553;BME280;72126;51.560;14.368;2024-01-30T08:20:40;101671.25;;;7.94;63.90
65553;BME280;72126;51.560;14.368;2024-01-30T08:23:05;101666.03;;;7.94;63.95
65553;BME280;72126;51.560;14.368;2024-01-30T08:25:30;101671.25;;;7.94;63.87
65553;BME280;72126;51.560;14.368;2024-01-30T08:27:56;101669.47;;;7.94;63.55
65553;BME280;72126;51.560;14.368;2024-01-30T08:30:21;101666.03;;;7.94;64.15
65553;BME280;72126;51.560;14.368;2024-01-30T08:32:46;101673.03;;;7.93;63.96
65553;BME280;72126;51.560;14.368;2024-01-30T08:35:11;101668.66;;;7.94;63.90
65553;BME280;72126;51.560;14.368;2024-01-30T08:37:36;101669.47;;;7.94;63.69
65553;BME280;72126;51.560;14.368;2024-01-30T08:40:02;101668.66;;;7.94;63.93
65553;BME280;72126;51.560;14.368;2024-01-30T08:42:27;101676.47;;;7.94;63.88
65553;BME280;72126;51.560;14.368;2024-01-30T08:44:52;101667.81;;;7.93;64.16
65553;BME280;72126;51.560;14.368;2024-01-30T08:47:18;101659.06;;;7.94;63.96
65553;BME280;72126;51.560;14.368;2024-01-30T08:49:43;101670.31;;;7.95;63.24
65553;BME280;72126;51.560;14.368;2024-01-30T08:52:08;101669.47;;;7.94;63.86
65553;BME280;72126;51.560;14.368;2024-01-30T08:54:33;101665.09;;;7.95;63.82
65553;BME280;72126;51.560;14.368;2024-01-30T08:56:58;101661.66;;;7.94;63.62
65553;BME280;72126;51.560;14.368;2024-01-30T08:59:23;101659.88;;;7.95;63.83
65553;BME280;72126;51.560;14.368;2024-01-30T09:01:49;101653.72;;;7.96;63.94
65553;BME280;72126;51.560;14.368;2024-01-30T09:04:14;101649.44;;;7.95;63.53
65553;BME280;72126;51.560;14.368;2024-01-30T09:06:39;101643.41;;;7.94;63.77
65553;BME280;72126;51.560;14.368;2024-01-30T09:09:04;101645.91;;;7.96;63.89
65553;BME280;72126;51.560;14.368;2024-01-30T09:11:29;101648.50;;;7.96;64.40
65553;BME280;72126;51.560;14.368;2024-01-30T09:13:55;101644.13;;;7.96;63.83
65553;BME280;72126;51.560;14.368;2024-01-30T09:16:20;101650.19;;;7.97;64.08
65553;BME280;72126;51.560;14.368;2024-01-30T09:18:45;101651.03;;;7.98;63.21
65553;BME280;72126;51.560;14.368;2024-01-30T09:21:10;101657.09;;;7.98;64.06
65553;BME280;72126;51.560;14.368;2024-01-30T09:23:35;101660.53;;;7.99;63.51
65553;BME280;72126;51.560;14.368;2024-01-30T09:26:01;101665.63;;;8.00;63.72
65553;BME280;72126;51.560;14.368;2024-01-30T09:28:28;101667.41;;;8.00;63.44
65553;BME280;72126;51.560;14.368;2024-01-30T09:30:54;101663.84;;;8.01;64.26
65553;BME280;72126;51.560;14.368;2024-01-30T09:33:19;101668.13;;;8.02;63.76
65553;BME280;72126;51.560;14.368;2024-01-30T09:35:44;101670.66;;;8.03;63.88
65553;BME280;72126;51.560;14.368;2024-01-30T09:38:09;101669.81;;;8.03;63.83
65553;BME280;72126;51.560;14.368;2024-01-30T09:40:34;101665.44;;;8.03;63.41
65553;BME280;72126;51.560;14.368;2024-01-30T09:43:00;101668.75;;;8.05;63.63
65553;BME280;72126;51.560;14.368;2024-01-30T09:45:26;101668.75;;;8.05;63.39
65553;BME280;72126;51.560;14.368;2024-01-30T09:47:52;101667.91;;;8.05;63.34
65553;BME280;72126;51.560;14.368;2024-01-30T09:50:19;101667.91;;;8.05;64.01
65553;BME280;72126;51.560;14.368;2024-01-30T09:52:45;101666.03;;;8.07;63.86
65553;BME280;72126;51.560;14.368;2024-01-30T09:55:11;101663.41;;;8.07;63.87
65553;BME280;72126;51.560;14.368;2024-01-30T09:57:37;101672.06;;;8.07;63.70
65553;BME280;72126;51.560;14.368;2024-01-30T10:00:03;101677.28;;;8.07;63.42
65553;BME280;72126;51.560;14.368;2024-01-30T10:02:28;101679.00;;;8.08;63.47
65553;BME280;72126;51.560;14.368;2024-01-30T10:04:54;101681.47;;;8.10;63.48
65553;BME280;72126;51.560;14.368;2024-01-30T10:07:19;101674.59;;;8.09;64.07
65553;BME280;72126;51.560;14.368;2024-01-30T10:09:45;101670.22;;;8.09;63.39
65553;BME280;72126;51.560;14.368;2024-01-30T10:12:11;101673.66;;;8.10;63.63
65553;BME280;72126;51.560;14.368;2024-01-30T10:14:40;101674.50;;;8.10;63.70
65553;BME280;72126;51.560;14.368;2024-01-30T10:17:07;101670.09;;;8.11;63.69
65553;BME280;72126;51.560;14.368;2024-01-30T10:19:33;101660.63;;;8.10;62.93
65553;BME280;72126;51.560;14.368;2024-01-30T10:22:00;101658.84;;;8.10;63.45
65553;BME280;72126;51.560;14.368;2024-01-30T10:24:26;101648.41;;;8.10;63.04
65553;BME280;72126;51.560;14.368;2024-01-30T10:26:51;101650.06;;;8.11;63.67
65553;BME280;72126;51.560;14.368;2024-01-30T10:29:17;101637.03;;;8.11;63.39
65553;BME280;72126;51.560;14.368;2024-01-30T10:31:42;101643.91;;;8.12;63.66
65553;BME280;72126;51.560;14.368;2024-01-30T10:34:07;101639.63;;;8.11;63.50
65553;BME280;72126;51.560;14.368;2024-01-30T10:36:35;101640.34;;;8.13;62.79
65553;BME280;72126;51.560;14.368;2024-01-30T10:39:06;101643.81;;;8.14;64.00
65553;BME280;72126;51.560;14.368;2024-01-30T10:41:37;101647.25;;;8.14;63.67
65553;BME280;72126;51.560;14.368;2024-01-30T10:44:10;101636.81;;;8.14;63.12
65553;BME280;72126;51.560;14.368;2024-01-30T10:46:38;101631.50;;;8.16;63.30
65553;BME280;72126;51.560;14.368;2024-01-30T10:49:04;101633.28;;;8.15;63.19
65553;BME280;72126;51.560;14.368;2024-01-30T10:51:31;101633.28;;;8.15;63.33
65553;BME280;72126;51.560;14.368;2024-01-30T10:53:57;101628.88;;;8.16;63.48
65553;BME280;72126;51.560;14.368;2024-01-30T10:56:23;101629.72;;;8.16;63.54
65553;BME280;72126;51.560;14.368;2024-01-30T10:58:50;101629.72;;;8.16;63.49
65553;BME280;72126;51.560;14.368;2024-01-30T11:01:16;101619.28;;;8.16;63.64
65553;BME280;72126;51.560;14.368;2024-01-30T11:03:42;101621.78;;;8.18;63.70
65553;BME280;72126;51.560;14.368;2024-01-30T11:06:11;101626.03;;;8.19;63.78
65553;BME280;72126;51.560;14.368;2024-01-30T11:08:36;101606.13;;;8.18;63.33
65553;BME280;72126;51.560;14.368;2024-01-30T11:11:01;101605.19;;;8.19;63.05
65553;BME280;72126;51.560;14.368;2024-01-30T11:13:30;101608.66;;;8.19;63.61
65553;BME280;72126;51.560;14.368;2024-01-30T11:16:03;101600.91;;;8.18;62.78
65553;BME280;72126;51.560;14.368;2024-01-30T11:18:32;101597.34;;;8.19;63.54
65553;BME280;72126;51.560;14.368;2024-01-30T11:20:59;101599.88;;;8.20;63.62
65553;BME280;72126;51.560;14.368;2024-01-30T11:23:26;101593.19;;;8.16;62.88
65553;BME280;72126;51.560;14.368;2024-01-30T11:25:52;101598.94;;;8.21;63.33
65553;BME280;72126;51.560;14.368;2024-01-30T11:28:17;101596.31;;;8.21;63.56
65553;BME280;72126;51.560;14.368;2024-01-30T11:30:43;101595.59;;;8.19;63.40
65553;BME280;72126;51.560;14.368;2024-01-30T11:33:12;101590.28;;;8.21;63.62
65553;BME280;72126;51.560;14.368;2024-01-30T11:35:39;101594.53;;;8.22;63.91
65553;BME280;72126;51.560;14.368;2024-01-30T11:38:05;101590.16;;;8.22;64.02
65553;BME280;72126;51.560;14.368;2024-01-30T11:40:32;101590.97;;;8.23;63.96
65553;BME280;72126;51.560;14.368;2024-01-30T11:43:01;101590.97;;;8.23;63.35
65553;BME280;72126;51.560;14.368;2024-01-30T11:45:28;101586.59;;;8.23;63.53
65553;BME280;72126;51.560;14.368;2024-01-30T11:47:54;101581.38;;;8.23;62.80
65553;BME280;72126;51.560;14.368;2024-01-30T11:50:19;101577.94;;;8.23;63.04
65553;BME280;72126;51.560;14.368;2024-01-30T11:52:45;101577.81;;;8.25;63.38
65553;BME280;72126;51.560;14.368;2024-01-30T11:55:10;101580.44;;;8.25;63.29
65553;BME280;72126;51.560;14.368;2024-01-30T11:57:36;101577.75;;;8.26;62.99
65553;BME280;72126;51.560;14.368;2024-01-30T12:00:01;101568.13;;;8.27;63.53
65553;BME280;72126;51.560;14.368;2024-01-30T12:02:26;101568.13;;;8.27;63.31
65553;BME280;72126;51.560;14.368;2024-01-30T12:04:52;101566.34;;;8.27;63.50
65553;BME280;72126;51.560;14.368;2024-01-30T12:07:17;101564.56;;;8.28;63.41
65553;BME280;72126;51.560;14.368;2024-01-30T12:09:51;101567.19;;;8.28;63.03
65553;BME280;72126;51.560;14.368;2024-01-30T12:12:16;101566.22;;;8.29;63.63
65553;BME280;72126;51.560;14.368;2024-01-30T12:14:41;101561.84;;;8.29;63.98
65553;BME280;72126;51.560;14.368;2024-01-30T12:17:07;101557.47;;;8.30;63.72
65553;BME280;72126;51.560;14.368;2024-01-30T12:19:32;101554.84;;;8.30;63.48
65553;BME280;72126;51.560;14.368;2024-01-30T12:21:57;101547.97;;;8.29;63.06
65553;BME280;72126;51.560;14.368;2024-01-30T12:24:23;101548.72;;;8.31;63.19
65553;BME280;72126;51.560;14.368;2024-01-30T12:26:48;101543.50;;;8.31;63.53
65553;BME280;72126;51.560;14.368;2024-01-30T12:29:15;101540.03;;;8.30;63.69
65553;BME280;72126;51.560;14.368;2024-01-30T12:31:42;101545.97;;;8.32;63.23
65553;BME280;72126;51.560;14.368;2024-01-30T12:34:07;101547.75;;;8.32;63.63
65553;BME280;72126;51.560;14.368;2024-01-30T12:36:32;101547.66;;;8.33;63.59
65553;BME280;72126;51.560;14.368;2024-01-30T12:38:57;101538.16;;;8.32;62.93
65553;BME280;72126;51.560;14.368;2024-01-30T12:41:23;101545.88;;;8.34;63.18